sensor_id;sensor_type;location;lat;lon;timestamp;P1;durP1;ratioP1;P2;durP2;ratioP2
68993;SDS011;56054;50.968;5.816;2022-07-26T00:04:02;5.05;;;1.20;;
68993;SDS011;56054;50.968;5.816;2022-07-26T00:08:22;5.60;;;1.20;;
68993;SDS011;56054;50.968;5.816;2022-07-26T00:12:36;5.68;;;1.00;;
68993;SDS011;56054;50.968;5.816;2022-07-26T00:16:26;5.72;;;0.85;;
68993;SDS011;56054;50.968;5.816;2022-07-26T00:20:12;7.53;;;1.02;;
68993;SDS011;56054;50.968;5.816;2022-07-26T00:24:24;3.53;;;0.85;;
68993;SDS011;56054;50.968;5.816;2022-07-26T00:28:35;5.93;;;1.63;;
68993;SDS011;56054;50.968;5.816;2022-07-26T00:36:04;4.88;;;1.15;;
68993;SDS011;56054;50.968;5.816;2022-07-26T00:56:10;3.67;;;0.77;;
68993;SDS011;56054;50.968;5.816;2022-07-26T01:03:43;7.97;;;1.20;;
68993;SDS011;56054;50.968;5.816;2022-07-26T01:07:05;7.28;;;1.40;;
68993;SDS011;56054;50.968;5.816;2022-07-26T01:10:54;8.18;;;1.20;;
68993;SDS011;56054;50.968;5.816;2022-07-26T01:15:22;6.80;;;1.15;;
68993;SDS011;56054;50.968;5.816;2022-07-26T01:19:40;5.72;;;1.00;;
68993;SDS011;56054;50.968;5.816;2022-07-26T01:23:54;7.25;;;1.10;;
68993;SDS011;56054;50.968;5.816;2022-07-26T01:27:29;8.77;;;1.15;;
68993;SDS011;56054;50.968;5.816;2022-07-26T01:32:02;7.28;;;1.20;;
68993;SDS011;56054;50.968;5.816;2022-07-26T01:39:41;5.78;;;1.20;;
68993;SDS011;56054;50.968;5.816;2022-07-26T01:43:44;5.00;;;0.98;;
68993;SDS011;56054;50.968;5.816;2022-07-26T01:47:10;7.93;;;1.23;;
68993;SDS011;56054;50.968;5.816;2022-07-26T01:50:18;11.15;;;1.48;;
68993;SDS011;56054;50.968;5.816;2022-07-26T01:57:19;9.75;;;1.52;;
68993;SDS011;56054;50.968;5.816;2022-07-26T02:00:29;5.32;;;1.05;;
68993;SDS011;56054;50.968;5.816;2022-07-26T02:03:41;3.53;;;1.35;;
68993;SDS011;56054;50.968;5.816;2022-07-26T02:20:04;6.43;;;1.50;;
68993;SDS011;56054;50.968;5.816;2022-07-26T02:23:15;6.80;;;1.50;;
68993;SDS011;56054;50.968;5.816;2022-07-26T02:26:28;7.90;;;1.38;;
68993;SDS011;56054;50.968;5.816;2022-07-26T02:29:35;5.90;;;1.45;;
68993;SDS011;56054;50.968;5.816;2022-07-26T02:32:43;11.10;;;1.60;;
68993;SDS011;56054;50.968;5.816;2022-07-26T02:35:59;7.18;;;1.58;;
68993;SDS011;56054;50.968;5.816;2022-07-26T02:43:58;7.13;;;1.23;;
68993;SDS011;56054;50.968;5.816;2022-07-26T02:48:20;6.18;;;1.40;;
68993;SDS011;56054;50.968;5.816;2022-07-26T02:56:18;5.93;;;1.75;;
68993;SDS011;56054;50.968;5.816;2022-07-26T03:03:36;9.10;;;1.73;;
68993;SDS011;56054;50.968;5.816;2022-07-26T03:11:27;3.53;;;1.27;;
68993;SDS011;56054;50.968;5.816;2022-07-26T03:15:59;6.45;;;1.70;;
68993;SDS011;56054;50.968;5.816;2022-07-26T03:19:57;17.75;;;2.10;;
68993;SDS011;56054;50.968;5.816;2022-07-26T03:24:12;8.35;;;1.98;;
68993;SDS011;56054;50.968;5.816;2022-07-26T03:27:55;7.95;;;1.95;;
68993;SDS011;56054;50.968;5.816;2022-07-26T03:35:45;13.38;;;1.55;;
68993;SDS011;56054;50.968;5.816;2022-07-26T03:43:16;7.72;;;1.67;;
68993;SDS011;56054;50.968;5.816;2022-07-26T03:52:05;8.35;;;1.75;;
68993;SDS011;56054;50.968;5.816;2022-07-26T03:56:20;12.07;;;1.67;;
68993;SDS011;56054;50.968;5.816;2022-07-26T04:00:31;13.98;;;2.03;;
68993;SDS011;56054;50.968;5.816;2022-07-26T04:12:00;12.68;;;1.98;;
68993;SDS011;56054;50.968;5.816;2022-07-26T04:20:02;13.00;;;2.40;;
68993;SDS011;56054;50.968;5.816;2022-07-26T04:49:34;12.57;;;2.50;;
68993;SDS011;56054;50.968;5.816;2022-07-26T04:53:43;14.93;;;2.67;;
68993;SDS011;56054;50.968;5.816;2022-07-26T04:58:25;9.40;;;2.50;;
68993;SDS011;56054;50.968;5.816;2022-07-26T05:02:16;17.05;;;2.80;;
68993;SDS011;56054;50.968;5.816;2022-07-26T05:05:25;15.32;;;3.20;;
68993;SDS011;56054;50.968;5.816;2022-07-26T05:08:34;9.65;;;2.80;;
68993;SDS011;56054;50.968;5.816;2022-07-26T05:11:41;13.07;;;2.70;;
68993;SDS011;56054;50.968;5.816;2022-07-26T05:15:13;14.85;;;2.55;;
68993;SDS011;56054;50.968;5.816;2022-07-26T05:18:23;16.17;;;3.28;;
68993;SDS011;56054;50.968;5.816;2022-07-26T05:21:32;14.70;;;2.95;;
68993;SDS011;56054;50.968;5.816;2022-07-26T05:24:52;13.55;;;2.15;;
68993;SDS011;56054;50.968;5.816;2022-07-26T05:28:04;16.08;;;3.20;;
68993;SDS011;56054;50.968;5.816;2022-07-26T05:31:11;13.15;;;2.47;;
68993;SDS011;56054;50.968;5.816;2022-07-26T05:34:18;15.57;;;3.08;;
68993;SDS011;56054;50.968;5.816;2022-07-26T05:37:25;12.13;;;2.50;;
68993;SDS011;56054;50.968;5.816;2022-07-26T05:40:33;18.80;;;3.17;;
68993;SDS011;56054;50.968;5.816;2022-07-26T05:43:44;16.95;;;2.97;;
68993;SDS011;56054;50.968;5.816;2022-07-26T05:46:53;13.43;;;2.75;;
68993;SDS011;56054;50.968;5.816;2022-07-26T05:50:04;10.13;;;2.45;;
68993;SDS011;56054;50.968;5.816;2022-07-26T05:53:13;13.63;;;2.70;;
68993;SDS011;56054;50.968;5.816;2022-07-26T05:56:20;11.68;;;2.85;;
68993;SDS011;56054;50.968;5.816;2022-07-26T05:59:27;10.45;;;2.92;;
68993;SDS011;56054;50.968;5.816;2022-07-26T06:03:02;16.08;;;3.08;;
68993;SDS011;56054;50.968;5.816;2022-07-26T06:06:10;15.60;;;3.72;;
68993;SDS011;56054;50.968;5.816;2022-07-26T06:09:17;13.98;;;2.90;;
68993;SDS011;56054;50.968;5.816;2022-07-26T06:12:29;17.65;;;2.88;;
68993;SDS011;56054;50.968;5.816;2022-07-26T06:15:39;15.43;;;3.30;;
68993;SDS011;56054;50.968;5.816;2022-07-26T06:18:46;12.82;;;2.85;;
68993;SDS011;56054;50.968;5.816;2022-07-26T06:21:53;14.80;;;2.67;;
68993;SDS011;56054;50.968;5.816;2022-07-26T06:25:00;19.45;;;3.42;;
68993;SDS011;56054;50.968;5.816;2022-07-26T06:28:09;14.20;;;2.67;;
68993;SDS011;56054;50.968;5.816;2022-07-26T06:31:17;14.73;;;3.00;;
68993;SDS011;56054;50.968;5.816;2022-07-26T06:34:24;10.85;;;3.05;;
68993;SDS011;56054;50.968;5.816;2022-07-26T06:37:39;21.08;;;3.35;;
68993;SDS011;56054;50.968;5.816;2022-07-26T06:40:47;9.20;;;2.60;;
68993;SDS011;56054;50.968;5.816;2022-07-26T06:43:54;12.75;;;3.55;;
68993;SDS011;56054;50.968;5.816;2022-07-26T06:47:01;17.90;;;3.15;;
68993;SDS011;56054;50.968;5.816;2022-07-26T06:50:08;19.63;;;3.60;;
68993;SDS011;56054;50.968;5.816;2022-07-26T06:53:15;12.43;;;3.33;;
68993;SDS011;56054;50.968;5.816;2022-07-26T06:56:25;10.18;;;3.20;;
68993;SDS011;56054;50.968;5.816;2022-07-26T06:59:32;15.65;;;3.55;;
68993;SDS011;56054;50.968;5.816;2022-07-26T07:02:44;17.08;;;3.58;;
68993;SDS011;56054;50.968;5.816;2022-07-26T07:05:53;19.35;;;4.47;;
68993;SDS011;56054;50.968;5.816;2022-07-26T07:09:00;14.18;;;3.90;;
68993;SDS011;56054;50.968;5.816;2022-07-26T07:12:09;13.80;;;3.78;;
68993;SDS011;56054;50.968;5.816;2022-07-26T07:15:42;12.57;;;3.80;;
68993;SDS011;56054;50.968;5.816;2022-07-26T07:18:52;16.90;;;3.78;;
68993;SDS011;56054;50.968;5.816;2022-07-26T07:22:02;18.05;;;3.85;;
68993;SDS011;56054;50.968;5.816;2022-07-26T07:25:11;17.92;;;4.13;;
68993;SDS011;56054;50.968;5.816;2022-07-26T07:28:18;15.27;;;3.95;;
68993;SDS011;56054;50.968;5.816;2022-07-26T07:31:34;17.00;;;4.75;;
68993;SDS011;56054;50.968;5.816;2022-07-26T07:34:41;19.27;;;3.78;;
68993;SDS011;56054;50.968;5.816;2022-07-26T07:37:51;16.85;;;4.10;;
68993;SDS011;56054;50.968;5.816;2022-07-26T07:41:03;15.75;;;4.15;;
68993;SDS011;56054;50.968;5.816;2022-07-26T07:44:10;16.67;;;4.90;;
68993;SDS011;56054;50.968;5.816;2022-07-26T07:47:20;13.88;;;4.15;;
68993;SDS011;56054;50.968;5.816;2022-07-26T07:50:27;15.85;;;4.90;;
68993;SDS011;56054;50.968;5.816;2022-07-26T07:53:34;15.63;;;4.75;;
68993;SDS011;56054;50.968;5.816;2022-07-26T07:56:41;17.52;;;4.70;;
68993;SDS011;56054;50.968;5.816;2022-07-26T07:59:49;12.15;;;4.50;;
68993;SDS011;56054;50.968;5.816;2022-07-26T08:02:59;12.02;;;4.60;;
68993;SDS011;56054;50.968;5.816;2022-07-26T08:06:08;14.13;;;4.88;;
68993;SDS011;56054;50.968;5.816;2022-07-26T08:09:15;14.13;;;4.80;;
68993;SDS011;56054;50.968;5.816;2022-07-26T08:12:22;14.38;;;5.00;;
68993;SDS011;56054;50.968;5.816;2022-07-26T08:15:29;11.73;;;4.65;;
68993;SDS011;56054;50.968;5.816;2022-07-26T08:18:36;25.35;;;4.65;;
68993;SDS011;56054;50.968;5.816;2022-07-26T08:21:43;20.60;;;5.47;;
68993;SDS011;56054;50.968;5.816;2022-07-26T08:24:50;16.45;;;4.78;;
68993;SDS011;56054;50.968;5.816;2022-07-26T08:27:57;15.18;;;4.57;;
68993;SDS011;56054;50.968;5.816;2022-07-26T08:31:08;14.90;;;4.90;;
68993;SDS011;56054;50.968;5.816;2022-07-26T08:34:15;15.45;;;5.38;;
68993;SDS011;56054;50.968;5.816;2022-07-26T08:37:22;16.48;;;5.28;;
68993;SDS011;56054;50.968;5.816;2022-07-26T08:40:29;12.35;;;5.47;;
68993;SDS011;56054;50.968;5.816;2022-07-26T08:43:43;14.85;;;5.18;;
68993;SDS011;56054;50.968;5.816;2022-07-26T08:46:51;18.90;;;5.28;;
68993;SDS011;56054;50.968;5.816;2022-07-26T08:50:03;18.60;;;4.97;;
68993;SDS011;56054;50.968;5.816;2022-07-26T08:53:11;16.98;;;5.13;;
68993;SDS011;56054;50.968;5.816;2022-07-26T08:56:18;12.25;;;4.65;;
68993;SDS011;56054;50.968;5.816;2022-07-26T08:59:25;14.27;;;5.45;;
68993;SDS011;56054;50.968;5.816;2022-07-26T09:02:39;13.07;;;5.40;;
68993;SDS011;56054;50.968;5.816;2022-07-26T09:05:46;14.18;;;5.93;;
68993;SDS011;56054;50.968;5.816;2022-07-26T09:08:53;11.68;;;5.45;;
68993;SDS011;56054;50.968;5.816;2022-07-26T09:12:21;13.05;;;4.95;;
68993;SDS011;56054;50.968;5.816;2022-07-26T09:15:29;12.55;;;5.07;;
68993;SDS011;56054;50.968;5.816;2022-07-26T09:18:36;10.68;;;4.68;;
68993;SDS011;56054;50.968;5.816;2022-07-26T09:21:55;13.13;;;4.35;;
68993;SDS011;56054;50.968;5.816;2022-07-26T09:25:10;19.08;;;5.15;;
68993;SDS011;56054;50.968;5.816;2022-07-26T09:28:27;16.58;;;5.13;;
68993;SDS011;56054;50.968;5.816;2022-07-26T09:31:36;11.13;;;4.78;;
68993;SDS011;56054;50.968;5.816;2022-07-26T09:34:46;9.40;;;3.60;;
68993;SDS011;56054;50.968;5.816;2022-07-26T09:37:58;7.35;;;3.20;;
68993;SDS011;56054;50.968;5.816;2022-07-26T09:41:27;10.30;;;3.03;;
68993;SDS011;56054;50.968;5.816;2022-07-26T09:44:33;11.63;;;3.00;;
68993;SDS011;56054;50.968;5.816;2022-07-26T09:47:46;9.25;;;2.70;;
68993;SDS011;56054;50.968;5.816;2022-07-26T09:50:53;6.35;;;2.33;;
68993;SDS011;56054;50.968;5.816;2022-07-26T09:54:00;6.50;;;2.15;;
68993;SDS011;56054;50.968;5.816;2022-07-26T09:57:13;8.90;;;1.92;;
68993;SDS011;56054;50.968;5.816;2022-07-26T10:00:22;5.47;;;1.73;;
68993;SDS011;56054;50.968;5.816;2022-07-26T10:03:29;6.40;;;1.70;;
68993;SDS011;56054;50.968;5.816;2022-07-26T10:06:37;11.05;;;2.63;;
68993;SDS011;56054;50.968;5.816;2022-07-26T10:09:56;6.70;;;1.88;;
68993;SDS011;56054;50.968;5.816;2022-07-26T10:13:09;8.15;;;2.13;;
68993;SDS011;56054;50.968;5.816;2022-07-26T10:16:37;9.18;;;2.63;;
68993;SDS011;56054;50.968;5.816;2022-07-26T10:19:43;14.02;;;2.33;;
68993;SDS011;56054;50.968;5.816;2022-07-26T10:22:50;7.40;;;1.92;;
68993;SDS011;56054;50.968;5.816;2022-07-26T10:25:58;14.82;;;2.83;;
68993;SDS011;56054;50.968;5.816;2022-07-26T10:29:24;7.95;;;2.38;;
68993;SDS011;56054;50.968;5.816;2022-07-26T10:39:37;7.15;;;2.30;;
68993;SDS011;56054;50.968;5.816;2022-07-26T10:42:45;7.13;;;2.47;;
68993;SDS011;56054;50.968;5.816;2022-07-26T10:46:20;13.95;;;2.15;;
68993;SDS011;56054;50.968;5.816;2022-07-26T10:49:30;9.70;;;2.45;;
68993;SDS011;56054;50.968;5.816;2022-07-26T10:52:39;7.72;;;2.13;;
68993;SDS011;56054;50.968;5.816;2022-07-26T10:56:04;5.63;;;2.22;;
68993;SDS011;56054;50.968;5.816;2022-07-26T10:59:11;5.97;;;1.98;;
68993;SDS011;56054;50.968;5.816;2022-07-26T11:02:18;5.90;;;2.05;;
68993;SDS011;56054;50.968;5.816;2022-07-26T11:05:28;9.50;;;2.03;;
68993;SDS011;56054;50.968;5.816;2022-07-26T11:08:45;4.30;;;2.00;;
68993;SDS011;56054;50.968;5.816;2022-07-26T11:11:53;8.48;;;2.70;;
68993;SDS011;56054;50.968;5.816;2022-07-26T11:15:12;6.35;;;2.17;;
68993;SDS011;56054;50.968;5.816;2022-07-26T11:18:23;5.70;;;2.33;;
68993;SDS011;56054;50.968;5.816;2022-07-26T11:21:32;6.10;;;2.47;;
68993;SDS011;56054;50.968;5.816;2022-07-26T11:24:39;4.80;;;1.70;;
68993;SDS011;56054;50.968;5.816;2022-07-26T11:28:19;5.75;;;2.17;;
68993;SDS011;56054;50.968;5.816;2022-07-26T11:31:35;4.40;;;1.80;;
68993;SDS011;56054;50.968;5.816;2022-07-26T11:35:08;4.88;;;1.38;;
68993;SDS011;56054;50.968;5.816;2022-07-26T11:38:15;3.40;;;1.10;;
68993;SDS011;56054;50.968;5.816;2022-07-26T11:41:24;4.22;;;1.00;;
68993;SDS011;56054;50.968;5.816;2022-07-26T11:44:33;3.40;;;1.55;;
68993;SDS011;56054;50.968;5.816;2022-07-26T11:47:40;5.07;;;1.08;;
68993;SDS011;56054;50.968;5.816;2022-07-26T11:50:47;4.57;;;1.10;;
68993;SDS011;56054;50.968;5.816;2022-07-26T11:53:54;3.97;;;1.20;;
68993;SDS011;56054;50.968;5.816;2022-07-26T11:57:02;5.20;;;1.10;;
68993;SDS011;56054;50.968;5.816;2022-07-26T12:00:10;6.60;;;1.52;;
68993;SDS011;56054;50.968;5.816;2022-07-26T12:03:18;6.25;;;1.30;;
68993;SDS011;56054;50.968;5.816;2022-07-26T12:06:25;3.35;;;1.25;;
68993;SDS011;56054;50.968;5.816;2022-07-26T12:09:33;1.85;;;0.82;;
68993;SDS011;56054;50.968;5.816;2022-07-26T12:19:42;2.50;;;1.10;;
68993;SDS011;56054;50.968;5.816;2022-07-26T12:22:53;6.60;;;1.00;;
68993;SDS011;56054;50.968;5.816;2022-07-26T12:26:16;2.40;;;1.10;;
68993;SDS011;56054;50.968;5.816;2022-07-26T12:29:31;3.85;;;1.30;;
68993;SDS011;56054;50.968;5.816;2022-07-26T12:32:50;5.32;;;0.90;;
68993;SDS011;56054;50.968;5.816;2022-07-26T12:35:57;5.90;;;1.42;;
68993;SDS011;56054;50.968;5.816;2022-07-26T12:39:04;10.50;;;1.90;;
68993;SDS011;56054;50.968;5.816;2022-07-26T12:42:21;3.95;;;1.80;;
68993;SDS011;56054;50.968;5.816;2022-07-26T12:45:34;3.40;;;1.48;;
68993;SDS011;56054;50.968;5.816;2022-07-26T12:48:42;2.67;;;1.77;;
68993;SDS011;56054;50.968;5.816;2022-07-26T12:51:49;7.07;;;2.28;;
68993;SDS011;56054;50.968;5.816;2022-07-26T12:54:56;4.75;;;2.50;;
68993;SDS011;56054;50.968;5.816;2022-07-26T12:58:03;8.25;;;2.15;;
68993;SDS011;56054;50.968;5.816;2022-07-26T13:01:10;4.93;;;2.25;;
68993;SDS011;56054;50.968;5.816;2022-07-26T13:04:18;4.35;;;1.80;;
68993;SDS011;56054;50.968;5.816;2022-07-26T13:07:25;3.03;;;1.67;;
68993;SDS011;56054;50.968;5.816;2022-07-26T13:10:32;6.07;;;1.55;;
68993;SDS011;56054;50.968;5.816;2022-07-26T13:13:44;7.22;;;1.55;;
68993;SDS011;56054;50.968;5.816;2022-07-26T13:16:51;3.60;;;1.90;;
68993;SDS011;56054;50.968;5.816;2022-07-26T13:19:58;9.80;;;3.42;;
68993;SDS011;56054;50.968;5.816;2022-07-26T13:23:05;6.75;;;2.72;;
68993;SDS011;56054;50.968;5.816;2022-07-26T13:26:13;5.22;;;2.10;;
68993;SDS011;56054;50.968;5.816;2022-07-26T13:29:20;5.00;;;2.22;;
68993;SDS011;56054;50.968;5.816;2022-07-26T13:32:28;5.55;;;1.90;;
68993;SDS011;56054;50.968;5.816;2022-07-26T13:35:35;6.30;;;2.00;;
68993;SDS011;56054;50.968;5.816;2022-07-26T13:38:42;6.47;;;1.75;;
68993;SDS011;56054;50.968;5.816;2022-07-26T13:41:49;6.82;;;2.05;;
68993;SDS011;56054;50.968;5.816;2022-07-26T13:44:56;3.72;;;1.98;;
68993;SDS011;56054;50.968;5.816;2022-07-26T13:48:04;4.72;;;2.20;;
68993;SDS011;56054;50.968;5.816;2022-07-26T13:51:18;3.63;;;1.67;;
68993;SDS011;56054;50.968;5.816;2022-07-26T13:54:29;4.78;;;2.10;;
68993;SDS011;56054;50.968;5.816;2022-07-26T13:57:38;7.18;;;2.30;;
68993;SDS011;56054;50.968;5.816;2022-07-26T14:00:46;4.80;;;2.47;;
68993;SDS011;56054;50.968;5.816;2022-07-26T14:04:00;2.97;;;1.55;;
68993;SDS011;56054;50.968;5.816;2022-07-26T14:07:10;4.63;;;1.30;;
68993;SDS011;56054;50.968;5.816;2022-07-26T14:10:18;6.00;;;1.45;;
68993;SDS011;56054;50.968;5.816;2022-07-26T14:13:25;5.00;;;1.70;;
68993;SDS011;56054;50.968;5.816;2022-07-26T14:16:32;3.67;;;1.20;;
68993;SDS011;56054;50.968;5.816;2022-07-26T14:19:41;4.97;;;1.40;;
68993;SDS011;56054;50.968;5.816;2022-07-26T14:22:48;6.45;;;1.17;;
68993;SDS011;56054;50.968;5.816;2022-07-26T14:25:56;3.10;;;1.30;;
68993;SDS011;56054;50.968;5.816;2022-07-26T14:29:03;2.97;;;1.00;;
68993;SDS011;56054;50.968;5.816;2022-07-26T14:32:11;5.65;;;2.22;;
68993;SDS011;56054;50.968;5.816;2022-07-26T14:35:18;2.53;;;1.65;;
68993;SDS011;56054;50.968;5.816;2022-07-26T14:38:35;3.40;;;1.48;;
68993;SDS011;56054;50.968;5.816;2022-07-26T14:41:43;4.80;;;1.25;;
68993;SDS011;56054;50.968;5.816;2022-07-26T14:44:50;3.45;;;1.00;;
68993;SDS011;56054;50.968;5.816;2022-07-26T14:47:57;2.70;;;1.10;;
68993;SDS011;56054;50.968;5.816;2022-07-26T14:51:09;2.22;;;1.05;;
68993;SDS011;56054;50.968;5.816;2022-07-26T14:54:16;2.30;;;1.13;;
68993;SDS011;56054;50.968;5.816;2022-07-26T14:57:50;3.58;;;1.30;;
68993;SDS011;56054;50.968;5.816;2022-07-26T15:00:57;1.38;;;0.90;;
68993;SDS011;56054;50.968;5.816;2022-07-26T15:04:04;2.25;;;1.33;;
68993;SDS011;56054;50.968;5.816;2022-07-26T15:07:11;5.45;;;1.10;;
68993;SDS011;56054;50.968;5.816;2022-07-26T15:10:18;4.65;;;1.25;;
68993;SDS011;56054;50.968;5.816;2022-07-26T15:13:34;4.20;;;1.20;;
68993;SDS011;56054;50.968;5.816;2022-07-26T15:16:41;4.55;;;1.13;;
68993;SDS011;56054;50.968;5.816;2022-07-26T15:19:48;1.90;;;1.08;;
68993;SDS011;56054;50.968;5.816;2022-07-26T15:22:55;1.25;;;0.85;;
68993;SDS011;56054;50.968;5.816;2022-07-26T15:26:03;1.70;;;0.77;;
68993;SDS011;56054;50.968;5.816;2022-07-26T15:29:11;2.55;;;1.42;;
68993;SDS011;56054;50.968;5.816;2022-07-26T15:32:19;1.35;;;0.80;;
68993;SDS011;56054;50.968;5.816;2022-07-26T15:35:26;4.15;;;0.73;;
68993;SDS011;56054;50.968;5.816;2022-07-26T15:38:38;1.88;;;0.90;;
68993;SDS011;56054;50.968;5.816;2022-07-26T15:41:46;4.90;;;1.13;;
68993;SDS011;56054;50.968;5.816;2022-07-26T15:44:54;1.67;;;0.80;;
68993;SDS011;56054;50.968;5.816;2022-07-26T15:48:04;2.03;;;0.70;;
68993;SDS011;56054;50.968;5.816;2022-07-26T15:51:12;0.77;;;0.60;;
68993;SDS011;56054;50.968;5.816;2022-07-26T15:54:20;4.15;;;0.60;;
68993;SDS011;56054;50.968;5.816;2022-07-26T15:57:27;8.68;;;1.05;;
68993;SDS011;56054;50.968;5.816;2022-07-26T16:00:34;2.10;;;0.90;;
68993;SDS011;56054;50.968;5.816;2022-07-26T16:03:41;0.85;;;0.70;;
68993;SDS011;56054;50.968;5.816;2022-07-26T16:06:53;0.80;;;0.73;;
68993;SDS011;56054;50.968;5.816;2022-07-26T16:10:03;2.40;;;0.73;;
68993;SDS011;56054;50.968;5.816;2022-07-26T16:13:11;1.95;;;1.00;;
68993;SDS011;56054;50.968;5.816;2022-07-26T16:16:18;2.15;;;1.08;;
68993;SDS011;56054;50.968;5.816;2022-07-26T16:19:25;2.45;;;0.75;;
68993;SDS011;56054;50.968;5.816;2022-07-26T16:22:58;3.45;;;0.80;;
68993;SDS011;56054;50.968;5.816;2022-07-26T16:26:05;2.33;;;0.68;;
68993;SDS011;56054;50.968;5.816;2022-07-26T16:29:12;1.00;;;0.50;;
68993;SDS011;56054;50.968;5.816;2022-07-26T16:32:24;1.25;;;0.50;;
68993;SDS011;56054;50.968;5.816;2022-07-26T16:35:31;2.80;;;0.77;;
68993;SDS011;56054;50.968;5.816;2022-07-26T16:38:38;2.55;;;0.68;;
68993;SDS011;56054;50.968;5.816;2022-07-26T16:41:45;1.77;;;0.80;;
68993;SDS011;56054;50.968;5.816;2022-07-26T16:44:53;2.75;;;0.68;;
68993;SDS011;56054;50.968;5.816;2022-07-26T16:48:00;4.70;;;1.30;;
68993;SDS011;56054;50.968;5.816;2022-07-26T16:51:07;3.30;;;1.10;;
68993;SDS011;56054;50.968;5.816;2022-07-26T16:54:17;1.98;;;0.88;;
68993;SDS011;56054;50.968;5.816;2022-07-26T16:57:25;2.67;;;1.05;;
68993;SDS011;56054;50.968;5.816;2022-07-26T17:00:32;4.80;;;1.08;;
68993;SDS011;56054;50.968;5.816;2022-07-26T17:03:40;3.92;;;1.10;;
68993;SDS011;56054;50.968;5.816;2022-07-26T17:06:54;5.93;;;1.33;;
68993;SDS011;56054;50.968;5.816;2022-07-26T17:10:03;5.13;;;1.05;;
68993;SDS011;56054;50.968;5.816;2022-07-26T17:13:24;5.20;;;1.30;;
68993;SDS011;56054;50.968;5.816;2022-07-26T17:16:33;2.17;;;1.08;;
68993;SDS011;56054;50.968;5.816;2022-07-26T17:19:40;4.22;;;1.25;;
68993;SDS011;56054;50.968;5.816;2022-07-26T17:22:48;5.47;;;1.40;;
68993;SDS011;56054;50.968;5.816;2022-07-26T17:25:55;7.13;;;1.45;;
68993;SDS011;56054;50.968;5.816;2022-07-26T17:29:02;3.63;;;1.30;;
68993;SDS011;56054;50.968;5.816;2022-07-26T17:32:09;5.78;;;1.35;;
68993;SDS011;56054;50.968;5.816;2022-07-26T17:35:18;5.95;;;1.60;;
68993;SDS011;56054;50.968;5.816;2022-07-26T17:38:30;7.10;;;1.45;;
68993;SDS011;56054;50.968;5.816;2022-07-26T17:41:37;8.32;;;1.60;;
68993;SDS011;56054;50.968;5.816;2022-07-26T17:44:44;7.60;;;1.40;;
68993;SDS011;56054;50.968;5.816;2022-07-26T17:47:56;9.70;;;2.13;;
68993;SDS011;56054;50.968;5.816;2022-07-26T17:51:09;7.40;;;1.20;;
68993;SDS011;56054;50.968;5.816;2022-07-26T17:54:17;4.78;;;1.30;;
68993;SDS011;56054;50.968;5.816;2022-07-26T17:57:29;3.35;;;1.35;;
68993;SDS011;56054;50.968;5.816;2022-07-26T18:00:36;3.58;;;1.10;;
68993;SDS011;56054;50.968;5.816;2022-07-26T18:03:43;11.18;;;1.98;;
68993;SDS011;56054;50.968;5.816;2022-07-26T18:06:50;3.97;;;1.13;;
68993;SDS011;56054;50.968;5.816;2022-07-26T18:09:57;8.73;;;1.38;;
68993;SDS011;56054;50.968;5.816;2022-07-26T18:13:04;5.00;;;1.10;;
68993;SDS011;56054;50.968;5.816;2022-07-26T18:16:19;13.50;;;1.52;;
68993;SDS011;56054;50.968;5.816;2022-07-26T18:19:26;8.82;;;1.52;;
68993;SDS011;56054;50.968;5.816;2022-07-26T18:22:34;7.38;;;1.20;;
68993;SDS011;56054;50.968;5.816;2022-07-26T18:25:54;3.60;;;0.93;;
68993;SDS011;56054;50.968;5.816;2022-07-26T18:29:06;4.40;;;1.27;;
68993;SDS011;56054;50.968;5.816;2022-07-26T18:32:13;5.80;;;1.13;;
68993;SDS011;56054;50.968;5.816;2022-07-26T18:35:20;7.43;;;1.50;;
68993;SDS011;56054;50.968;5.816;2022-07-26T18:38:27;5.95;;;1.13;;
68993;SDS011;56054;50.968;5.816;2022-07-26T18:41:34;6.35;;;1.15;;
68993;SDS011;56054;50.968;5.816;2022-07-26T18:44:41;9.52;;;1.55;;
68993;SDS011;56054;50.968;5.816;2022-07-26T18:48:14;7.35;;;1.20;;
68993;SDS011;56054;50.968;5.816;2022-07-26T18:51:26;6.38;;;1.33;;
68993;SDS011;56054;50.968;5.816;2022-07-26T18:54:33;8.05;;;1.63;;
68993;SDS011;56054;50.968;5.816;2022-07-26T18:57:41;7.45;;;1.30;;
68993;SDS011;56054;50.968;5.816;2022-07-26T19:00:53;3.55;;;1.50;;
68993;SDS011;56054;50.968;5.816;2022-07-26T19:04:00;3.30;;;1.08;;
68993;SDS011;56054;50.968;5.816;2022-07-26T19:07:08;8.27;;;1.45;;
68993;SDS011;56054;50.968;5.816;2022-07-26T19:10:15;6.35;;;1.10;;
68993;SDS011;56054;50.968;5.816;2022-07-26T19:13:22;8.57;;;1.40;;
68993;SDS011;56054;50.968;5.816;2022-07-26T19:16:34;8.77;;;1.48;;
68993;SDS011;56054;50.968;5.816;2022-07-26T19:19:41;13.68;;;1.50;;
68993;SDS011;56054;50.968;5.816;2022-07-26T19:22:48;5.88;;;1.15;;
68993;SDS011;56054;50.968;5.816;2022-07-26T19:26:02;7.60;;;0.93;;
68993;SDS011;56054;50.968;5.816;2022-07-26T19:29:13;12.50;;;1.50;;
68993;SDS011;56054;50.968;5.816;2022-07-26T19:32:20;7.22;;;1.33;;
68993;SDS011;56054;50.968;5.816;2022-07-26T19:35:28;3.97;;;1.52;;
68993;SDS011;56054;50.968;5.816;2022-07-26T19:38:35;6.05;;;1.33;;
68993;SDS011;56054;50.968;5.816;2022-07-26T19:41:42;10.93;;;1.13;;
68993;SDS011;56054;50.968;5.816;2022-07-26T19:44:58;10.73;;;1.42;;
68993;SDS011;56054;50.968;5.816;2022-07-26T19:48:09;8.70;;;1.65;;
68993;SDS011;56054;50.968;5.816;2022-07-26T19:51:29;5.20;;;1.33;;
68993;SDS011;56054;50.968;5.816;2022-07-26T19:54:36;9.60;;;1.77;;
68993;SDS011;56054;50.968;5.816;2022-07-26T19:57:43;6.40;;;1.23;;
68993;SDS011;56054;50.968;5.816;2022-07-26T20:00:53;8.88;;;1.45;;
68993;SDS011;56054;50.968;5.816;2022-07-26T20:04:00;5.50;;;1.20;;
68993;SDS011;56054;50.968;5.816;2022-07-26T20:07:07;7.88;;;1.33;;
68993;SDS011;56054;50.968;5.816;2022-07-26T20:10:17;7.07;;;1.30;;
68993;SDS011;56054;50.968;5.816;2022-07-26T20:13:29;8.90;;;1.40;;
68993;SDS011;56054;50.968;5.816;2022-07-26T20:16:37;11.02;;;2.10;;
68993;SDS011;56054;50.968;5.816;2022-07-26T20:19:45;4.55;;;1.42;;
68993;SDS011;56054;50.968;5.816;2022-07-26T20:22:54;5.80;;;1.48;;
68993;SDS011;56054;50.968;5.816;2022-07-26T20:26:01;4.90;;;1.30;;
68993;SDS011;56054;50.968;5.816;2022-07-26T20:29:20;5.43;;;1.52;;
68993;SDS011;56054;50.968;5.816;2022-07-26T20:32:28;6.47;;;1.52;;
68993;SDS011;56054;50.968;5.816;2022-07-26T20:35:36;8.73;;;1.58;;
68993;SDS011;56054;50.968;5.816;2022-07-26T20:38:44;8.02;;;1.42;;
68993;SDS011;56054;50.968;5.816;2022-07-26T20:41:52;4.53;;;1.48;;
68993;SDS011;56054;50.968;5.816;2022-07-26T20:44:59;4.15;;;1.10;;
68993;SDS011;56054;50.968;5.816;2022-07-26T20:48:06;7.30;;;1.27;;
68993;SDS011;56054;50.968;5.816;2022-07-26T20:51:17;7.13;;;1.00;;
68993;SDS011;56054;50.968;5.816;2022-07-26T20:54:23;6.55;;;1.20;;
68993;SDS011;56054;50.968;5.816;2022-07-26T20:57:34;8.73;;;1.10;;
68993;SDS011;56054;50.968;5.816;2022-07-26T21:00:43;5.05;;;1.00;;
68993;SDS011;56054;50.968;5.816;2022-07-26T21:03:50;3.97;;;0.80;;
68993;SDS011;56054;50.968;5.816;2022-07-26T21:07:10;6.32;;;1.02;;
68993;SDS011;56054;50.968;5.816;2022-07-26T21:10:19;5.75;;;0.90;;
68993;SDS011;56054;50.968;5.816;2022-07-26T21:13:26;11.73;;;0.90;;
68993;SDS011;56054;50.968;5.816;2022-07-26T21:16:33;6.43;;;0.88;;
68993;SDS011;56054;50.968;5.816;2022-07-26T21:19:42;2.83;;;0.65;;
68993;SDS011;56054;50.968;5.816;2022-07-26T21:22:54;7.25;;;1.00;;
68993;SDS011;56054;50.968;5.816;2022-07-26T21:26:04;6.13;;;1.65;;
68993;SDS011;56054;50.968;5.816;2022-07-26T21:29:11;5.95;;;0.90;;
68993;SDS011;56054;50.968;5.816;2022-07-26T21:32:20;12.35;;;1.20;;
68993;SDS011;56054;50.968;5.816;2022-07-26T21:35:27;5.40;;;1.00;;
68993;SDS011;56054;50.968;5.816;2022-07-26T21:38:40;9.30;;;1.15;;